Aérodrome :
LOGIN :

S'inscrire | Disclaimer

   EN    FR    IT 

 










Légende :    VFR   VFR Marginal   IFR   IFR Intensif   IFR Très Intensif
Visi : 
Plafond : 
>= 8 km
>= 3000ft
5 à 8 km
1000 à 3000 ft
1500m à 5 km
500 à 1000 ft
800 à 1500m
200 à 500 ft
< 800m
< 200 ft
Symboles :   Orages  Brouillard  Fortes neiges  Fortes précipitations  Vent > 20 kt
SIGMETs :   Divers  Orages  Givrage  Turbulence  Onde Orograph.  Cendres Volcan.






- Altitude de l'aérodrome : 171 ft
- Code IATA : EGC


LFBE - Bergerac

DERNIER METAR :
  • 090100Z AUTO 23011KT 9999 FEW035/// SCT049/// OVC082/// ///TCU 10/08 Q1019

METARs EXPIRÉS :
  • 090030Z AUTO 23013KT 9999 BKN032 BKN039 BKN050 10/08 Q1019
  • 090000Z AUTO 23013KT 9999 FEW034 OVC064 11/08 Q1020
  • 082330Z AUTO 24009KT 8000 -RA FEW028 BKN037 BKN046 10/08 Q1020
  • 082300Z AUTO 24010KT 9999 FEW042 OVC058 11/08 Q1020
  • 082230Z AUTO 23007KT 9999 FEW029 BKN035 OVC047 10/08 Q1020

TAF TAF LFBE
Valide du 08 à 18h jusqu'au 09 à 18h UTC


081700Z 0818/0918 24010KT 9999 BKN035
BECMG 0821/0823 25015G25KT
TEMPO 0900/0918 28020G35KT 4000 SHRA FEW020CB BKN025TCU



MET'MAP, la Météo Aéronautique d'un coup d'oeil ! - Copyright ORBIFLY Décembre 2007 - Disclaimer

ORBIFLY MET'MAP TEAM :

Programmation & Développement : Alexandra Zaïnal
Sur une idée originale de : Baudouin d'Aumeries
Assistance à la programmation : Marc-Olivier Méhu
Soutien technique & logistique : Manuel Goepfert

Contact : metmap@orbifly.com




SOURCES & CREDITS :

   NOAA